sensor_id;sensor_type;location;lat;lon;timestamp;P1;durP1;ratioP1;P2;durP2;ratioP2
47021;SDS011;32779;52.264;6.154;2024-02-21T00:01:35;28.40;;;12.15;;
47021;SDS011;32779;52.264;6.154;2024-02-21T00:04:01;28.33;;;12.73;;
47021;SDS011;32779;52.264;6.154;2024-02-21T00:06:26;25.70;;;11.45;;
47021;SDS011;32779;52.264;6.154;2024-02-21T00:08:52;30.40;;;12.77;;
47021;SDS011;32779;52.264;6.154;2024-02-21T00:11:17;27.73;;;12.43;;
47021;SDS011;32779;52.264;6.154;2024-02-21T00:13:43;25.48;;;10.95;;
47021;SDS011;32779;52.264;6.154;2024-02-21T00:16:09;22.48;;;10.95;;
47021;SDS011;32779;52.264;6.154;2024-02-21T00:18:36;27.73;;;10.50;;
47021;SDS011;32779;52.264;6.154;2024-02-21T00:21:01;24.50;;;11.10;;
47021;SDS011;32779;52.264;6.154;2024-02-21T00:23:28;25.77;;;10.38;;
47021;SDS011;32779;52.264;6.154;2024-02-21T00:25:53;20.65;;;9.60;;
47021;SDS011;32779;52.264;6.154;2024-02-21T00:28:19;30.48;;;10.27;;
47021;SDS011;32779;52.264;6.154;2024-02-21T00:30:45;24.90;;;9.35;;
47021;SDS011;32779;52.264;6.154;2024-02-21T00:33:13;16.80;;;8.57;;
47021;SDS011;32779;52.264;6.154;2024-02-21T00:35:38;19.70;;;8.65;;
47021;SDS011;32779;52.264;6.154;2024-02-21T00:38:04;16.48;;;8.27;;
47021;SDS011;32779;52.264;6.154;2024-02-21T00:40:30;17.35;;;8.30;;
47021;SDS011;32779;52.264;6.154;2024-02-21T00:42:56;21.95;;;8.18;;
47021;SDS011;32779;52.264;6.154;2024-02-21T00:45:21;17.67;;;8.70;;
47021;SDS011;32779;52.264;6.154;2024-02-21T00:47:47;18.10;;;7.55;;
47021;SDS011;32779;52.264;6.154;2024-02-21T00:50:12;18.38;;;7.65;;
47021;SDS011;32779;52.264;6.154;2024-02-21T00:52:38;18.38;;;8.07;;
47021;SDS011;32779;52.264;6.154;2024-02-21T00:55:04;14.73;;;6.70;;
47021;SDS011;32779;52.264;6.154;2024-02-21T00:59:56;18.88;;;7.00;;
47021;SDS011;32779;52.264;6.154;2024-02-21T01:02:22;17.95;;;7.60;;
47021;SDS011;32779;52.264;6.154;2024-02-21T01:04:48;16.88;;;7.72;;
47021;SDS011;32779;52.264;6.154;2024-02-21T01:07:13;17.35;;;7.10;;
47021;SDS011;32779;52.264;6.154;2024-02-21T01:09:39;16.58;;;6.57;;
47021;SDS011;32779;52.264;6.154;2024-02-21T01:12:05;15.63;;;6.43;;
47021;SDS011;32779;52.264;6.154;2024-02-21T01:14:30;18.33;;;6.65;;
47021;SDS011;32779;52.264;6.154;2024-02-21T01:16:56;17.08;;;6.78;;
47021;SDS011;32779;52.264;6.154;2024-02-21T01:19:22;13.70;;;7.05;;
47021;SDS011;32779;52.264;6.154;2024-02-21T01:21:47;18.70;;;7.25;;
47021;SDS011;32779;52.264;6.154;2024-02-21T01:24:13;18.13;;;6.50;;
47021;SDS011;32779;52.264;6.154;2024-02-21T01:26:39;17.80;;;6.20;;
47021;SDS011;32779;52.264;6.154;2024-02-21T01:31:31;22.95;;;6.22;;
47021;SDS011;32779;52.264;6.154;2024-02-21T01:33:56;18.42;;;6.68;;
47021;SDS011;32779;52.264;6.154;2024-02-21T01:36:23;12.13;;;5.55;;
47021;SDS011;32779;52.264;6.154;2024-02-21T01:38:48;12.55;;;6.25;;
47021;SDS011;32779;52.264;6.154;2024-02-21T01:41:14;16.67;;;6.47;;
47021;SDS011;32779;52.264;6.154;2024-02-21T01:43:41;12.48;;;5.45;;
47021;SDS011;32779;52.264;6.154;2024-02-21T01:46:07;18.88;;;6.43;;
47021;SDS011;32779;52.264;6.154;2024-02-21T01:48:33;15.07;;;5.97;;
47021;SDS011;32779;52.264;6.154;2024-02-21T01:50:59;13.50;;;6.32;;
47021;SDS011;32779;52.264;6.154;2024-02-21T01:53:27;19.27;;;6.85;;
47021;SDS011;32779;52.264;6.154;2024-02-21T01:55:55;16.75;;;6.35;;
47021;SDS011;32779;52.264;6.154;2024-02-21T01:58:21;33.95;;;8.43;;
47021;SDS011;32779;52.264;6.154;2024-02-21T02:00:48;16.83;;;6.13;;
47021;SDS011;32779;52.264;6.154;2024-02-21T02:03:15;18.48;;;6.28;;
47021;SDS011;32779;52.264;6.154;2024-02-21T02:05:49;11.60;;;6.13;;
47021;SDS011;32779;52.264;6.154;2024-02-21T02:08:15;16.83;;;5.75;;
47021;SDS011;32779;52.264;6.154;2024-02-21T02:10:43;17.55;;;5.95;;
47021;SDS011;32779;52.264;6.154;2024-02-21T02:15:41;19.48;;;6.82;;
47021;SDS011;32779;52.264;6.154;2024-02-21T02:18:08;17.13;;;6.22;;
47021;SDS011;32779;52.264;6.154;2024-02-21T02:20:35;21.83;;;7.35;;
47021;SDS011;32779;52.264;6.154;2024-02-21T02:25:51;16.20;;;6.90;;
47021;SDS011;32779;52.264;6.154;2024-02-21T02:28:18;13.98;;;6.90;;
47021;SDS011;32779;52.264;6.154;2024-02-21T02:30:44;21.33;;;6.47;;
47021;SDS011;32779;52.264;6.154;2024-02-21T02:33:10;15.27;;;6.70;;
47021;SDS011;32779;52.264;6.154;2024-02-21T02:35:35;17.02;;;7.05;;
47021;SDS011;32779;52.264;6.154;2024-02-21T02:38:01;11.27;;;6.38;;
47021;SDS011;32779;52.264;6.154;2024-02-21T02:40:27;14.77;;;7.32;;
47021;SDS011;32779;52.264;6.154;2024-02-21T02:42:53;20.80;;;7.03;;
47021;SDS011;32779;52.264;6.154;2024-02-21T02:45:20;21.90;;;7.32;;
47021;SDS011;32779;52.264;6.154;2024-02-21T02:47:48;23.70;;;8.32;;
47021;SDS011;32779;52.264;6.154;2024-02-21T02:50:14;20.92;;;7.68;;
47021;SDS011;32779;52.264;6.154;2024-02-21T02:52:39;17.10;;;7.70;;
47021;SDS011;32779;52.264;6.154;2024-02-21T02:55:05;17.83;;;6.72;;
47021;SDS011;32779;52.264;6.154;2024-02-21T02:57:32;13.75;;;7.32;;
47021;SDS011;32779;52.264;6.154;2024-02-21T02:59:58;19.98;;;7.53;;
47021;SDS011;32779;52.264;6.154;2024-02-21T03:02:23;17.35;;;8.02;;
47021;SDS011;32779;52.264;6.154;2024-02-21T03:04:49;21.70;;;8.30;;
47021;SDS011;32779;52.264;6.154;2024-02-21T03:07:15;20.77;;;8.05;;
47021;SDS011;32779;52.264;6.154;2024-02-21T03:09:41;27.58;;;7.82;;
47021;SDS011;32779;52.264;6.154;2024-02-21T03:12:09;19.63;;;8.88;;
47021;SDS011;32779;52.264;6.154;2024-02-21T03:14:35;24.55;;;8.48;;
47021;SDS011;32779;52.264;6.154;2024-02-21T03:17:01;22.35;;;7.90;;
47021;SDS011;32779;52.264;6.154;2024-02-21T03:19:27;15.73;;;9.02;;
47021;SDS011;32779;52.264;6.154;2024-02-21T03:21:53;15.48;;;8.20;;
47021;SDS011;32779;52.264;6.154;2024-02-21T03:24:19;19.83;;;8.43;;
47021;SDS011;32779;52.264;6.154;2024-02-21T03:26:45;17.35;;;8.30;;
47021;SDS011;32779;52.264;6.154;2024-02-21T03:29:14;16.95;;;7.63;;
47021;SDS011;32779;52.264;6.154;2024-02-21T03:31:41;23.77;;;8.70;;
47021;SDS011;32779;52.264;6.154;2024-02-21T03:34:07;19.92;;;8.50;;
47021;SDS011;32779;52.264;6.154;2024-02-21T03:36:33;19.30;;;8.32;;
47021;SDS011;32779;52.264;6.154;2024-02-21T03:38:58;21.25;;;8.95;;
47021;SDS011;32779;52.264;6.154;2024-02-21T03:41:24;18.92;;;8.25;;
47021;SDS011;32779;52.264;6.154;2024-02-21T03:43:50;28.45;;;9.10;;
47021;SDS011;32779;52.264;6.154;2024-02-21T03:46:16;22.88;;;8.35;;
47021;SDS011;32779;52.264;6.154;2024-02-21T03:48:41;22.65;;;8.32;;
47021;SDS011;32779;52.264;6.154;2024-02-21T03:51:07;19.92;;;8.63;;
47021;SDS011;32779;52.264;6.154;2024-02-21T03:53:33;22.98;;;7.95;;
47021;SDS011;32779;52.264;6.154;2024-02-21T03:56:02;15.95;;;7.80;;
47021;SDS011;32779;52.264;6.154;2024-02-21T03:58:32;16.02;;;7.93;;
47021;SDS011;32779;52.264;6.154;2024-02-21T04:01:01;18.55;;;7.63;;
47021;SDS011;32779;52.264;6.154;2024-02-21T04:03:28;21.50;;;7.95;;
47021;SDS011;32779;52.264;6.154;2024-02-21T04:08:19;24.02;;;8.10;;
47021;SDS011;32779;52.264;6.154;2024-02-21T04:10:45;15.98;;;7.82;;
47021;SDS011;32779;52.264;6.154;2024-02-21T04:13:11;20.67;;;8.13;;
47021;SDS011;32779;52.264;6.154;2024-02-21T04:15:36;22.13;;;7.90;;
47021;SDS011;32779;52.264;6.154;2024-02-21T04:18:02;22.48;;;8.63;;
47021;SDS011;32779;52.264;6.154;2024-02-21T04:20:28;19.02;;;8.13;;
47021;SDS011;32779;52.264;6.154;2024-02-21T04:22:54;28.52;;;8.93;;
47021;SDS011;32779;52.264;6.154;2024-02-21T04:25:20;15.82;;;7.63;;
47021;SDS011;32779;52.264;6.154;2024-02-21T04:27:46;22.25;;;7.80;;
47021;SDS011;32779;52.264;6.154;2024-02-21T04:30:11;20.20;;;8.48;;
47021;SDS011;32779;52.264;6.154;2024-02-21T04:32:37;22.92;;;8.63;;
47021;SDS011;32779;52.264;6.154;2024-02-21T04:35:04;22.30;;;8.10;;
47021;SDS011;32779;52.264;6.154;2024-02-21T04:37:29;23.33;;;8.32;;
47021;SDS011;32779;52.264;6.154;2024-02-21T04:42:21;25.08;;;8.38;;
47021;SDS011;32779;52.264;6.154;2024-02-21T04:44:47;25.85;;;8.57;;
47021;SDS011;32779;52.264;6.154;2024-02-21T04:47:12;24.65;;;9.13;;
47021;SDS011;32779;52.264;6.154;2024-02-21T04:49:38;20.85;;;9.05;;
47021;SDS011;32779;52.264;6.154;2024-02-21T04:54:29;23.95;;;9.18;;
47021;SDS011;32779;52.264;6.154;2024-02-21T04:56:55;19.42;;;8.88;;
47021;SDS011;32779;52.264;6.154;2024-02-21T04:59:20;23.48;;;8.68;;
47021;SDS011;32779;52.264;6.154;2024-02-21T05:01:46;19.25;;;8.75;;
47021;SDS011;32779;52.264;6.154;2024-02-21T05:04:11;19.58;;;8.75;;
47021;SDS011;32779;52.264;6.154;2024-02-21T05:06:40;21.05;;;9.45;;
47021;SDS011;32779;52.264;6.154;2024-02-21T05:09:07;16.48;;;8.30;;
47021;SDS011;32779;52.264;6.154;2024-02-21T05:11:35;22.17;;;9.35;;
47021;SDS011;32779;52.264;6.154;2024-02-21T05:16:26;20.42;;;10.30;;
47021;SDS011;32779;52.264;6.154;2024-02-21T05:18:51;23.27;;;10.50;;
47021;SDS011;32779;52.264;6.154;2024-02-21T05:21:17;27.45;;;12.88;;
47021;SDS011;32779;52.264;6.154;2024-02-21T05:23:43;29.20;;;10.75;;
47021;SDS011;32779;52.264;6.154;2024-02-21T05:26:08;30.13;;;11.88;;
47021;SDS011;32779;52.264;6.154;2024-02-21T05:28:34;25.63;;;11.30;;
47021;SDS011;32779;52.264;6.154;2024-02-21T05:31:00;26.17;;;11.07;;
47021;SDS011;32779;52.264;6.154;2024-02-21T05:33:25;27.05;;;10.90;;
47021;SDS011;32779;52.264;6.154;2024-02-21T05:35:51;18.27;;;10.77;;
47021;SDS011;32779;52.264;6.154;2024-02-21T05:38:17;26.05;;;10.77;;
47021;SDS011;32779;52.264;6.154;2024-02-21T05:40:42;26.02;;;10.80;;
47021;SDS011;32779;52.264;6.154;2024-02-21T05:43:09;22.42;;;10.73;;
47021;SDS011;32779;52.264;6.154;2024-02-21T05:45:35;30.52;;;12.95;;
47021;SDS011;32779;52.264;6.154;2024-02-21T05:48:01;22.35;;;10.85;;
47021;SDS011;32779;52.264;6.154;2024-02-21T05:50:27;23.30;;;10.77;;
47021;SDS011;32779;52.264;6.154;2024-02-21T05:52:56;25.42;;;10.70;;
47021;SDS011;32779;52.264;6.154;2024-02-21T05:55:22;21.63;;;10.88;;
47021;SDS011;32779;52.264;6.154;2024-02-21T05:57:48;20.20;;;10.25;;
47021;SDS011;32779;52.264;6.154;2024-02-21T06:00:14;20.83;;;10.50;;
47021;SDS011;32779;52.264;6.154;2024-02-21T06:05:06;20.52;;;9.98;;
47021;SDS011;32779;52.264;6.154;2024-02-21T06:07:34;27.80;;;10.80;;
47021;SDS011;32779;52.264;6.154;2024-02-21T06:10:03;26.10;;;10.27;;
47021;SDS011;32779;52.264;6.154;2024-02-21T06:12:29;26.83;;;11.90;;
47021;SDS011;32779;52.264;6.154;2024-02-21T06:14:55;25.17;;;11.20;;
47021;SDS011;32779;52.264;6.154;2024-02-21T06:17:21;22.17;;;11.10;;
47021;SDS011;32779;52.264;6.154;2024-02-21T06:19:46;21.65;;;11.88;;
47021;SDS011;32779;52.264;6.154;2024-02-21T06:22:12;23.40;;;11.63;;
47021;SDS011;32779;52.264;6.154;2024-02-21T06:24:37;22.17;;;12.13;;
47021;SDS011;32779;52.264;6.154;2024-02-21T06:27:04;23.90;;;11.65;;
47021;SDS011;32779;52.264;6.154;2024-02-21T06:29:31;23.05;;;11.35;;
47021;SDS011;32779;52.264;6.154;2024-02-21T06:31:59;27.63;;;12.77;;
47021;SDS011;32779;52.264;6.154;2024-02-21T06:34:25;21.55;;;12.00;;
47021;SDS011;32779;52.264;6.154;2024-02-21T06:36:51;23.15;;;11.63;;
47021;SDS011;32779;52.264;6.154;2024-02-21T06:39:17;22.02;;;11.40;;
47021;SDS011;32779;52.264;6.154;2024-02-21T06:41:42;21.33;;;12.52;;
47021;SDS011;32779;52.264;6.154;2024-02-21T06:44:08;27.77;;;12.55;;
47021;SDS011;32779;52.264;6.154;2024-02-21T06:46:34;22.80;;;12.23;;
47021;SDS011;32779;52.264;6.154;2024-02-21T06:49:00;22.35;;;12.68;;
47021;SDS011;32779;52.264;6.154;2024-02-21T06:51:27;22.63;;;12.40;;
47021;SDS011;32779;52.264;6.154;2024-02-21T06:53:56;22.63;;;13.38;;
47021;SDS011;32779;52.264;6.154;2024-02-21T06:56:24;23.63;;;13.85;;
47021;SDS011;32779;52.264;6.154;2024-02-21T06:58:54;27.75;;;13.02;;
47021;SDS011;32779;52.264;6.154;2024-02-21T07:01:20;28.08;;;13.85;;
47021;SDS011;32779;52.264;6.154;2024-02-21T07:03:46;26.90;;;13.52;;
47021;SDS011;32779;52.264;6.154;2024-02-21T07:06:12;28.35;;;13.75;;
47021;SDS011;32779;52.264;6.154;2024-02-21T07:08:37;29.00;;;14.73;;
47021;SDS011;32779;52.264;6.154;2024-02-21T07:13:29;31.65;;;13.77;;
47021;SDS011;32779;52.264;6.154;2024-02-21T07:15:55;27.80;;;14.18;;
47021;SDS011;32779;52.264;6.154;2024-02-21T07:18:20;26.83;;;13.27;;
47021;SDS011;32779;52.264;6.154;2024-02-21T07:20:46;28.77;;;14.32;;
47021;SDS011;32779;52.264;6.154;2024-02-21T07:23:11;27.25;;;13.45;;
47021;SDS011;32779;52.264;6.154;2024-02-21T07:25:38;28.73;;;14.38;;
47021;SDS011;32779;52.264;6.154;2024-02-21T07:28:04;29.88;;;14.00;;
47021;SDS011;32779;52.264;6.154;2024-02-21T07:30:30;29.25;;;13.75;;
47021;SDS011;32779;52.264;6.154;2024-02-21T07:32:56;30.83;;;13.48;;
47021;SDS011;32779;52.264;6.154;2024-02-21T07:35:21;28.33;;;13.30;;
47021;SDS011;32779;52.264;6.154;2024-02-21T07:37:47;34.22;;;14.40;;
47021;SDS011;32779;52.264;6.154;2024-02-21T07:40:13;26.08;;;13.35;;
47021;SDS011;32779;52.264;6.154;2024-02-21T07:42:39;22.80;;;13.23;;
47021;SDS011;32779;52.264;6.154;2024-02-21T07:45:05;25.73;;;12.93;;
47021;SDS011;32779;52.264;6.154;2024-02-21T07:47:32;24.83;;;12.13;;
47021;SDS011;32779;52.264;6.154;2024-02-21T07:49:57;23.33;;;12.18;;
47021;SDS011;32779;52.264;6.154;2024-02-21T07:52:23;27.33;;;13.02;;
47021;SDS011;32779;52.264;6.154;2024-02-21T07:54:50;27.85;;;10.82;;
47021;SDS011;32779;52.264;6.154;2024-02-21T07:57:16;22.90;;;11.23;;
47021;SDS011;32779;52.264;6.154;2024-02-21T07:59:42;25.77;;;11.35;;
47021;SDS011;32779;52.264;6.154;2024-02-21T08:02:08;25.63;;;10.88;;
47021;SDS011;32779;52.264;6.154;2024-02-21T08:04:33;23.17;;;10.07;;
47021;SDS011;32779;52.264;6.154;2024-02-21T08:06:59;18.45;;;10.10;;
47021;SDS011;32779;52.264;6.154;2024-02-21T08:09:29;25.67;;;9.98;;
47021;SDS011;32779;52.264;6.154;2024-02-21T08:11:54;19.08;;;9.23;;
47021;SDS011;32779;52.264;6.154;2024-02-21T08:14:20;16.98;;;8.95;;
47021;SDS011;32779;52.264;6.154;2024-02-21T08:16:46;22.30;;;9.48;;
47021;SDS011;32779;52.264;6.154;2024-02-21T08:19:12;22.48;;;9.80;;
47021;SDS011;32779;52.264;6.154;2024-02-21T08:21:38;21.08;;;8.85;;
47021;SDS011;32779;52.264;6.154;2024-02-21T08:24:04;22.42;;;8.90;;
47021;SDS011;32779;52.264;6.154;2024-02-21T08:26:30;29.48;;;9.20;;
47021;SDS011;32779;52.264;6.154;2024-02-21T08:28:59;21.65;;;9.10;;
47021;SDS011;32779;52.264;6.154;2024-02-21T08:31:25;19.85;;;9.48;;
47021;SDS011;32779;52.264;6.154;2024-02-21T08:33:59;16.75;;;9.18;;
47021;SDS011;32779;52.264;6.154;2024-02-21T08:36:32;22.08;;;9.13;;
47021;SDS011;32779;52.264;6.154;2024-02-21T08:38:58;24.15;;;9.05;;
47021;SDS011;32779;52.264;6.154;2024-02-21T08:41:25;19.15;;;8.38;;
47021;SDS011;32779;52.264;6.154;2024-02-21T08:43:51;22.23;;;8.45;;
47021;SDS011;32779;52.264;6.154;2024-02-21T08:46:18;18.25;;;8.05;;
47021;SDS011;32779;52.264;6.154;2024-02-21T08:48:49;20.38;;;7.93;;
47021;SDS011;32779;52.264;6.154;2024-02-21T08:51:14;18.73;;;8.52;;
47021;SDS011;32779;52.264;6.154;2024-02-21T08:53:40;18.40;;;7.63;;
47021;SDS011;32779;52.264;6.154;2024-02-21T08:56:06;27.75;;;9.48;;
47021;SDS011;32779;52.264;6.154;2024-02-21T08:58:35;15.95;;;8.35;;
47021;SDS011;32779;52.264;6.154;2024-02-21T09:01:02;18.85;;;7.82;;
47021;SDS011;32779;52.264;6.154;2024-02-21T09:03:30;23.20;;;8.00;;
47021;SDS011;32779;52.264;6.154;2024-02-21T09:05:56;21.58;;;8.48;;
47021;SDS011;32779;52.264;6.154;2024-02-21T09:08:22;21.40;;;7.72;;
47021;SDS011;32779;52.264;6.154;2024-02-21T09:10:49;16.42;;;7.72;;
47021;SDS011;32779;52.264;6.154;2024-02-21T09:13:15;17.90;;;7.55;;
47021;SDS011;32779;52.264;6.154;2024-02-21T09:15:40;24.40;;;7.43;;
47021;SDS011;32779;52.264;6.154;2024-02-21T09:18:06;16.02;;;7.53;;
47021;SDS011;32779;52.264;6.154;2024-02-21T09:20:31;16.73;;;7.47;;
47021;SDS011;32779;52.264;6.154;2024-02-21T09:22:57;16.63;;;7.93;;
47021;SDS011;32779;52.264;6.154;2024-02-21T09:25:23;16.45;;;7.50;;
47021;SDS011;32779;52.264;6.154;2024-02-21T09:27:48;15.63;;;8.10;;
47021;SDS011;32779;52.264;6.154;2024-02-21T09:30:14;18.45;;;8.05;;
47021;SDS011;32779;52.264;6.154;2024-02-21T09:32:39;22.15;;;7.57;;
47021;SDS011;32779;52.264;6.154;2024-02-21T09:35:05;17.50;;;7.47;;
47021;SDS011;32779;52.264;6.154;2024-02-21T09:37:31;14.48;;;7.40;;
47021;SDS011;32779;52.264;6.154;2024-02-21T09:39:57;19.40;;;7.50;;
47021;SDS011;32779;52.264;6.154;2024-02-21T09:42:24;18.90;;;7.68;;
47021;SDS011;32779;52.264;6.154;2024-02-21T09:45:07;20.98;;;8.35;;
47021;SDS011;32779;52.264;6.154;2024-02-21T09:50:38;19.08;;;7.85;;
47021;SDS011;32779;52.264;6.154;2024-02-21T09:53:08;17.67;;;7.93;;
47021;SDS011;32779;52.264;6.154;2024-02-21T09:55:36;18.08;;;8.25;;
47021;SDS011;32779;52.264;6.154;2024-02-21T09:58:05;16.17;;;8.20;;
47021;SDS011;32779;52.264;6.154;2024-02-21T10:00:31;19.05;;;8.52;;
47021;SDS011;32779;52.264;6.154;2024-02-21T10:02:57;20.33;;;9.02;;
47021;SDS011;32779;52.264;6.154;2024-02-21T10:05:23;15.90;;;7.43;;
47021;SDS011;32779;52.264;6.154;2024-02-21T10:07:50;17.90;;;7.75;;
47021;SDS011;32779;52.264;6.154;2024-02-21T10:10:16;19.85;;;8.18;;
47021;SDS011;32779;52.264;6.154;2024-02-21T10:12:52;17.40;;;7.88;;
47021;SDS011;32779;52.264;6.154;2024-02-21T10:15:21;10.57;;;6.40;;
47021;SDS011;32779;52.264;6.154;2024-02-21T10:17:48;17.77;;;7.28;;
47021;SDS011;32779;52.264;6.154;2024-02-21T10:20:25;14.18;;;7.40;;
47021;SDS011;32779;52.264;6.154;2024-02-21T10:23:00;15.82;;;6.72;;
47021;SDS011;32779;52.264;6.154;2024-02-21T10:25:28;16.38;;;7.10;;
47021;SDS011;32779;52.264;6.154;2024-02-21T10:27:53;15.57;;;6.57;;
47021;SDS011;32779;52.264;6.154;2024-02-21T10:32:52;12.27;;;6.20;;
47021;SDS011;32779;52.264;6.154;2024-02-21T10:35:25;15.80;;;6.72;;
47021;SDS011;32779;52.264;6.154;2024-02-21T10:37:55;15.00;;;6.53;;
47021;SDS011;32779;52.264;6.154;2024-02-21T10:40:25;13.82;;;6.70;;
47021;SDS011;32779;52.264;6.154;2024-02-21T10:42:58;12.93;;;6.13;;
47021;SDS011;32779;52.264;6.154;2024-02-21T10:45:28;11.82;;;6.07;;
47021;SDS011;32779;52.264;6.154;2024-02-21T10:53:19;15.15;;;5.65;;
47021;SDS011;32779;52.264;6.154;2024-02-21T10:56:40;13.85;;;6.28;;
47021;SDS011;32779;52.264;6.154;2024-02-21T10:59:03;11.02;;;5.53;;
47021;SDS011;32779;52.264;6.154;2024-02-21T11:01:31;12.30;;;6.53;;
47021;SDS011;32779;52.264;6.154;2024-02-21T11:04:07;10.15;;;5.38;;
47021;SDS011;32779;52.264;6.154;2024-02-21T11:06:34;10.90;;;5.45;;
47021;SDS011;32779;52.264;6.154;2024-02-21T11:09:05;10.30;;;5.43;;
47021;SDS011;32779;52.264;6.154;2024-02-21T11:14:11;9.80;;;5.07;;
47021;SDS011;32779;52.264;6.154;2024-02-21T11:16:43;8.90;;;4.50;;
47021;SDS011;32779;52.264;6.154;2024-02-21T11:19:18;7.70;;;4.47;;
47021;SDS011;32779;52.264;6.154;2024-02-21T11:21:44;5.93;;;4.07;;
47021;SDS011;32779;52.264;6.154;2024-02-21T11:24:09;7.55;;;4.65;;
47021;SDS011;32779;52.264;6.154;2024-02-21T11:26:36;9.13;;;4.25;;
47021;SDS011;32779;52.264;6.154;2024-02-21T11:29:03;5.38;;;4.05;;
47021;SDS011;32779;52.264;6.154;2024-02-21T11:31:44;7.30;;;4.15;;
47021;SDS011;32779;52.264;6.154;2024-02-21T11:34:12;6.30;;;3.83;;
47021;SDS011;32779;52.264;6.154;2024-02-21T11:36:47;6.90;;;4.35;;
47021;SDS011;32779;52.264;6.154;2024-02-21T11:41:59;9.50;;;4.90;;
47021;SDS011;32779;52.264;6.154;2024-02-21T11:44:35;10.10;;;4.53;;
47021;SDS011;32779;52.264;6.154;2024-02-21T11:47:03;10.10;;;5.32;;
47021;SDS011;32779;52.264;6.154;2024-02-21T11:49:29;8.25;;;4.55;;
47021;SDS011;32779;52.264;6.154;2024-02-21T11:52:02;6.38;;;4.32;;
47021;SDS011;32779;52.264;6.154;2024-02-21T11:54:31;7.50;;;4.70;;
47021;SDS011;32779;52.264;6.154;2024-02-21T11:56:56;8.90;;;4.78;;
47021;SDS011;32779;52.264;6.154;2024-02-21T11:59:22;9.20;;;4.55;;
47021;SDS011;32779;52.264;6.154;2024-02-21T12:01:48;9.02;;;5.30;;
47021;SDS011;32779;52.264;6.154;2024-02-21T12:04:15;9.90;;;5.20;;
47021;SDS011;32779;52.264;6.154;2024-02-21T12:06:42;10.75;;;5.32;;
47021;SDS011;32779;52.264;6.154;2024-02-21T12:09:09;11.65;;;5.40;;
47021;SDS011;32779;52.264;6.154;2024-02-21T12:11:35;12.30;;;5.93;;
47021;SDS011;32779;52.264;6.154;2024-02-21T12:16:28;10.63;;;5.32;;
47021;SDS011;32779;52.264;6.154;2024-02-21T12:18:55;8.80;;;5.78;;
47021;SDS011;32779;52.264;6.154;2024-02-21T12:21:25;13.07;;;6.68;;
47021;SDS011;32779;52.264;6.154;2024-02-21T12:23:53;12.48;;;5.85;;
47021;SDS011;32779;52.264;6.154;2024-02-21T12:26:20;11.45;;;6.13;;
47021;SDS011;32779;52.264;6.154;2024-02-21T12:28:45;13.30;;;6.35;;
47021;SDS011;32779;52.264;6.154;2024-02-21T12:31:11;11.90;;;5.55;;
47021;SDS011;32779;52.264;6.154;2024-02-21T12:33:37;7.75;;;5.43;;
47021;SDS011;32779;52.264;6.154;2024-02-21T12:36:02;14.02;;;5.43;;
47021;SDS011;32779;52.264;6.154;2024-02-21T12:38:29;10.38;;;5.68;;
47021;SDS011;32779;52.264;6.154;2024-02-21T12:40:54;15.88;;;5.78;;
47021;SDS011;32779;52.264;6.154;2024-02-21T12:43:20;11.23;;;4.95;;
47021;SDS011;32779;52.264;6.154;2024-02-21T12:45:47;11.55;;;5.20;;
47021;SDS011;32779;52.264;6.154;2024-02-21T12:50:39;12.75;;;5.55;;
47021;SDS011;32779;52.264;6.154;2024-02-21T12:53:12;12.60;;;5.25;;
47021;SDS011;32779;52.264;6.154;2024-02-21T12:55:40;11.70;;;5.40;;
47021;SDS011;32779;52.264;6.154;2024-02-21T12:58:06;7.50;;;4.97;;
47021;SDS011;32779;52.264;6.154;2024-02-21T13:00:32;11.02;;;5.20;;
47021;SDS011;32779;52.264;6.154;2024-02-21T13:02:58;14.18;;;5.53;;
47021;SDS011;32779;52.264;6.154;2024-02-21T13:05:23;9.82;;;5.07;;
47021;SDS011;32779;52.264;6.154;2024-02-21T13:07:49;12.00;;;4.97;;
47021;SDS011;32779;52.264;6.154;2024-02-21T13:10:15;14.38;;;4.97;;
47021;SDS011;32779;52.264;6.154;2024-02-21T13:12:40;10.57;;;5.18;;
47021;SDS011;32779;52.264;6.154;2024-02-21T13:15:06;12.43;;;5.22;;
47021;SDS011;32779;52.264;6.154;2024-02-21T13:19:58;7.53;;;4.47;;
47021;SDS011;32779;52.264;6.154;2024-02-21T13:22:23;9.00;;;4.60;;
47021;SDS011;32779;52.264;6.154;2024-02-21T13:24:51;13.65;;;4.82;;
47021;SDS011;32779;52.264;6.154;2024-02-21T13:27:17;11.32;;;4.97;;
47021;SDS011;32779;52.264;6.154;2024-02-21T13:29:42;15.20;;;4.88;;
47021;SDS011;32779;52.264;6.154;2024-02-21T13:32:08;14.20;;;5.07;;
47021;SDS011;32779;52.264;6.154;2024-02-21T13:34:34;13.80;;;5.07;;
47021;SDS011;32779;52.264;6.154;2024-02-21T13:36:59;10.82;;;4.97;;
47021;SDS011;32779;52.264;6.154;2024-02-21T13:39:25;11.18;;;4.78;;
47021;SDS011;32779;52.264;6.154;2024-02-21T13:41:50;14.90;;;4.82;;
47021;SDS011;32779;52.264;6.154;2024-02-21T13:44:16;15.68;;;5.07;;
47021;SDS011;32779;52.264;6.154;2024-02-21T13:46:41;9.52;;;4.60;;
47021;SDS011;32779;52.264;6.154;2024-02-21T13:49:07;10.77;;;4.82;;
47021;SDS011;32779;52.264;6.154;2024-02-21T13:51:33;12.15;;;4.93;;
47021;SDS011;32779;52.264;6.154;2024-02-21T13:54:01;15.63;;;5.13;;
47021;SDS011;32779;52.264;6.154;2024-02-21T13:56:30;8.85;;;4.35;;
47021;SDS011;32779;52.264;6.154;2024-02-21T13:58:57;9.75;;;4.20;;
47021;SDS011;32779;52.264;6.154;2024-02-21T14:01:23;16.60;;;4.38;;
47021;SDS011;32779;52.264;6.154;2024-02-21T14:03:48;11.15;;;5.15;;
47021;SDS011;32779;52.264;6.154;2024-02-21T14:06:14;14.65;;;4.50;;
47021;SDS011;32779;52.264;6.154;2024-02-21T14:08:39;11.85;;;4.75;;
47021;SDS011;32779;52.264;6.154;2024-02-21T14:11:06;9.98;;;4.22;;
47021;SDS011;32779;52.264;6.154;2024-02-21T14:13:32;9.95;;;4.32;;
47021;SDS011;32779;52.264;6.154;2024-02-21T14:15:57;12.82;;;4.93;;
47021;SDS011;32779;52.264;6.154;2024-02-21T14:18:23;11.40;;;4.35;;
47021;SDS011;32779;52.264;6.154;2024-02-21T14:20:48;13.50;;;4.93;;
47021;SDS011;32779;52.264;6.154;2024-02-21T14:23:14;14.05;;;4.88;;
47021;SDS011;32779;52.264;6.154;2024-02-21T14:25:40;11.48;;;4.45;;
47021;SDS011;32779;52.264;6.154;2024-02-21T14:28:07;9.23;;;4.45;;
47021;SDS011;32779;52.264;6.154;2024-02-21T14:30:34;12.82;;;4.28;;
47021;SDS011;32779;52.264;6.154;2024-02-21T14:33:00;11.20;;;4.18;;
47021;SDS011;32779;52.264;6.154;2024-02-21T14:35:25;12.60;;;4.70;;
47021;SDS011;32779;52.264;6.154;2024-02-21T14:37:51;12.02;;;5.20;;
47021;SDS011;32779;52.264;6.154;2024-02-21T14:40:22;12.50;;;4.47;;
47021;SDS011;32779;52.264;6.154;2024-02-21T14:42:47;10.82;;;4.40;;
47021;SDS011;32779;52.264;6.154;2024-02-21T14:45:13;10.52;;;4.60;;
47021;SDS011;32779;52.264;6.154;2024-02-21T14:47:39;11.60;;;4.68;;
47021;SDS011;32779;52.264;6.154;2024-02-21T14:50:04;8.52;;;4.40;;
47021;SDS011;32779;52.264;6.154;2024-02-21T14:52:32;12.60;;;4.95;;
47021;SDS011;32779;52.264;6.154;2024-02-21T14:54:58;10.48;;;4.60;;
47021;SDS011;32779;52.264;6.154;2024-02-21T14:57:23;16.80;;;4.47;;
47021;SDS011;32779;52.264;6.154;2024-02-21T14:59:50;13.23;;;4.50;;
47021;SDS011;32779;52.264;6.154;2024-02-21T15:02:21;11.70;;;4.70;;
47021;SDS011;32779;52.264;6.154;2024-02-21T15:04:50;11.45;;;4.47;;
47021;SDS011;32779;52.264;6.154;2024-02-21T15:07:19;11.15;;;4.25;;
47021;SDS011;32779;52.264;6.154;2024-02-21T15:09:48;14.55;;;4.47;;
47021;SDS011;32779;52.264;6.154;2024-02-21T15:12:14;12.45;;;3.78;;
47021;SDS011;32779;52.264;6.154;2024-02-21T15:14:40;9.00;;;3.55;;
47021;SDS011;32779;52.264;6.154;2024-02-21T15:17:05;8.85;;;3.60;;
47021;SDS011;32779;52.264;6.154;2024-02-21T15:19:31;9.02;;;3.80;;